sensor_id;sensor_type;location;lat;lon;timestamp;pressure;altitude;pressure_sealevel;temperature
68939;BMP180;59064;45.294;11.816;2023-03-17T00:00:30;102170.00;;;4.50
68939;BMP180;59064;45.294;11.816;2023-03-17T00:02:55;102176.00;;;4.50
68939;BMP180;59064;45.294;11.816;2023-03-17T00:05:25;102167.80;;;4.50
68939;BMP180;59064;45.294;11.816;2023-03-17T00:07:52;102173.20;;;4.50
68939;BMP180;59064;45.294;11.816;2023-03-17T00:10:24;102171.40;;;4.40
68939;BMP180;59064;45.294;11.816;2023-03-17T00:12:52;102171.80;;;4.40
68939;BMP180;59064;45.294;11.816;2023-03-17T00:15:24;102170.00;;;4.30
68939;BMP180;59064;45.294;11.816;2023-03-17T00:17:53;102167.00;;;4.30
68939;BMP180;59064;45.294;11.816;2023-03-17T00:20:27;102162.40;;;4.30
68939;BMP180;59064;45.294;11.816;2023-03-17T00:22:55;102162.80;;;4.30
68939;BMP180;59064;45.294;11.816;2023-03-17T00:25:28;102163.40;;;4.30
68939;BMP180;59064;45.294;11.816;2023-03-17T00:27:56;102161.40;;;4.30
68939;BMP180;59064;45.294;11.816;2023-03-17T00:30:22;102160.60;;;4.30
68939;BMP180;59064;45.294;11.816;2023-03-17T00:32:50;102157.40;;;4.30
68939;BMP180;59064;45.294;11.816;2023-03-17T00:35:21;102158.00;;;4.30
68939;BMP180;59064;45.294;11.816;2023-03-17T00:37:49;102152.20;;;4.32
68939;BMP180;59064;45.294;11.816;2023-03-17T00:42:49;102152.20;;;4.40
68939;BMP180;59064;45.294;11.816;2023-03-17T00:45:16;102150.00;;;4.40
68939;BMP180;59064;45.294;11.816;2023-03-17T00:47:42;102147.60;;;4.40
68939;BMP180;59064;45.294;11.816;2023-03-17T00:50:15;102147.80;;;4.50
68939;BMP180;59064;45.294;11.816;2023-03-17T00:52:42;102150.20;;;4.50
68939;BMP180;59064;45.294;11.816;2023-03-17T00:55:09;102151.60;;;4.50
68939;BMP180;59064;45.294;11.816;2023-03-17T00:57:36;102145.40;;;4.50
68939;BMP180;59064;45.294;11.816;2023-03-17T01:00:04;102147.40;;;4.40
68939;BMP180;59064;45.294;11.816;2023-03-17T01:02:30;102144.00;;;4.40
68939;BMP180;59064;45.294;11.816;2023-03-17T01:04:57;102144.00;;;4.30
68939;BMP180;59064;45.294;11.816;2023-03-17T01:07:23;102142.60;;;4.20
68939;BMP180;59064;45.294;11.816;2023-03-17T01:09:49;102135.60;;;4.10
68939;BMP180;59064;45.294;11.816;2023-03-17T01:12:15;102130.60;;;4.02
68939;BMP180;59064;45.294;11.816;2023-03-17T01:14:40;102127.00;;;4.00
68939;BMP180;59064;45.294;11.816;2023-03-17T01:17:14;102129.60;;;3.90
68939;BMP180;59064;45.294;11.816;2023-03-17T01:19:41;102126.80;;;3.84
68939;BMP180;59064;45.294;11.816;2023-03-17T01:22:07;102119.20;;;3.80
68939;BMP180;59064;45.294;11.816;2023-03-17T01:24:33;102118.40;;;3.80
68939;BMP180;59064;45.294;11.816;2023-03-17T01:26:59;102115.00;;;3.70
68939;BMP180;59064;45.294;11.816;2023-03-17T01:29:24;102110.20;;;3.70
68939;BMP180;59064;45.294;11.816;2023-03-17T01:31:51;102109.20;;;3.70
68939;BMP180;59064;45.294;11.816;2023-03-17T01:34:17;102110.60;;;3.70
68939;BMP180;59064;45.294;11.816;2023-03-17T01:36:43;102098.80;;;3.80
68939;BMP180;59064;45.294;11.816;2023-03-17T01:39:09;102099.40;;;3.72
68939;BMP180;59064;45.294;11.816;2023-03-17T01:41:35;102102.00;;;3.70
68939;BMP180;59064;45.294;11.816;2023-03-17T01:44:02;102099.80;;;3.60
68939;BMP180;59064;45.294;11.816;2023-03-17T01:46:29;102098.40;;;3.58
68939;BMP180;59064;45.294;11.816;2023-03-17T01:49:23;102102.00;;;3.50
68939;BMP180;59064;45.294;11.816;2023-03-17T01:54:41;102098.40;;;3.40
68939;BMP180;59064;45.294;11.816;2023-03-17T02:00:07;102096.40;;;3.30
68939;BMP180;59064;45.294;11.816;2023-03-17T02:02:36;102095.20;;;3.20
68939;BMP180;59064;45.294;11.816;2023-03-17T02:05:04;102095.80;;;3.10
68939;BMP180;59064;45.294;11.816;2023-03-17T02:07:31;102090.60;;;3.04
68939;BMP180;59064;45.294;11.816;2023-03-17T02:09:57;102095.00;;;3.00
68939;BMP180;59064;45.294;11.816;2023-03-17T02:12:26;102095.60;;;2.90
68939;BMP180;59064;45.294;11.816;2023-03-17T02:14:53;102092.60;;;2.80
68939;BMP180;59064;45.294;11.816;2023-03-17T02:17:20;102094.00;;;2.70
68939;BMP180;59064;45.294;11.816;2023-03-17T02:19:47;102092.00;;;2.62
68939;BMP180;59064;45.294;11.816;2023-03-17T02:22:14;102090.00;;;2.60
68939;BMP180;59064;45.294;11.816;2023-03-17T02:24:48;102087.80;;;2.50
68939;BMP180;59064;45.294;11.816;2023-03-17T02:27:23;102088.20;;;2.60
68939;BMP180;59064;45.294;11.816;2023-03-17T02:29:50;102087.60;;;2.70
68939;BMP180;59064;45.294;11.816;2023-03-17T02:32:17;102086.80;;;2.70
68939;BMP180;59064;45.294;11.816;2023-03-17T02:34:45;102083.40;;;2.80
68939;BMP180;59064;45.294;11.816;2023-03-17T02:37:12;102083.60;;;2.80
68939;BMP180;59064;45.294;11.816;2023-03-17T02:39:37;102085.00;;;2.82
68939;BMP180;59064;45.294;11.816;2023-03-17T02:42:04;102085.00;;;2.90
68939;BMP180;59064;45.294;11.816;2023-03-17T02:44:30;102091.00;;;2.90
68939;BMP180;59064;45.294;11.816;2023-03-17T02:46:56;102089.20;;;3.00
68939;BMP180;59064;45.294;11.816;2023-03-17T02:49:23;102088.40;;;3.00
68939;BMP180;59064;45.294;11.816;2023-03-17T02:51:49;102090.00;;;3.04
68939;BMP180;59064;45.294;11.816;2023-03-17T02:54:14;102090.40;;;3.10
68939;BMP180;59064;45.294;11.816;2023-03-17T02:56:40;102093.60;;;3.10
68939;BMP180;59064;45.294;11.816;2023-03-17T02:59:06;102092.80;;;3.00
68939;BMP180;59064;45.294;11.816;2023-03-17T03:01:33;102086.20;;;3.02
68939;BMP180;59064;45.294;11.816;2023-03-17T03:03:58;102084.00;;;3.10
68939;BMP180;59064;45.294;11.816;2023-03-17T03:06:24;102091.20;;;3.20
68939;BMP180;59064;45.294;11.816;2023-03-17T03:08:51;102087.80;;;3.20
68939;BMP180;59064;45.294;11.816;2023-03-17T03:11:17;102089.20;;;3.30
68939;BMP180;59064;45.294;11.816;2023-03-17T03:13:44;102082.60;;;3.30
68939;BMP180;59064;45.294;11.816;2023-03-17T03:16:09;102086.20;;;3.40
68939;BMP180;59064;45.294;11.816;2023-03-17T03:18:35;102083.80;;;3.40
68939;BMP180;59064;45.294;11.816;2023-03-17T03:21:02;102084.40;;;3.48
68939;BMP180;59064;45.294;11.816;2023-03-17T03:23:28;102078.20;;;3.50
68939;BMP180;59064;45.294;11.816;2023-03-17T03:25:54;102082.60;;;3.50
68939;BMP180;59064;45.294;11.816;2023-03-17T03:28:20;102085.80;;;3.50
68939;BMP180;59064;45.294;11.816;2023-03-17T03:30:45;102086.80;;;3.50
68939;BMP180;59064;45.294;11.816;2023-03-17T03:33:12;102085.40;;;3.50
68939;BMP180;59064;45.294;11.816;2023-03-17T03:35:38;102085.40;;;3.50
68939;BMP180;59064;45.294;11.816;2023-03-17T03:38:04;102082.80;;;3.50
68939;BMP180;59064;45.294;11.816;2023-03-17T03:40:30;102084.00;;;3.56
68939;BMP180;59064;45.294;11.816;2023-03-17T03:42:55;102091.80;;;3.50
68939;BMP180;59064;45.294;11.816;2023-03-17T03:45:21;102092.60;;;3.50
68939;BMP180;59064;45.294;11.816;2023-03-17T03:47:46;102089.80;;;3.40
68939;BMP180;59064;45.294;11.816;2023-03-17T03:50:12;102092.40;;;3.30
68939;BMP180;59064;45.294;11.816;2023-03-17T03:52:38;102093.60;;;3.30
68939;BMP180;59064;45.294;11.816;2023-03-17T03:55:04;102090.20;;;3.26
68939;BMP180;59064;45.294;11.816;2023-03-17T03:57:30;102091.20;;;3.20
68939;BMP180;59064;45.294;11.816;2023-03-17T03:59:56;102094.40;;;3.20
68939;BMP180;59064;45.294;11.816;2023-03-17T04:02:21;102097.40;;;3.20
68939;BMP180;59064;45.294;11.816;2023-03-17T04:04:47;102095.40;;;3.20
68939;BMP180;59064;45.294;11.816;2023-03-17T04:07:13;102097.80;;;3.10
68939;BMP180;59064;45.294;11.816;2023-03-17T04:09:38;102098.60;;;3.10
68939;BMP180;59064;45.294;11.816;2023-03-17T04:12:04;102097.80;;;3.10
68939;BMP180;59064;45.294;11.816;2023-03-17T04:14:30;102102.00;;;3.02
68939;BMP180;59064;45.294;11.816;2023-03-17T04:16:56;102100.60;;;3.00
68939;BMP180;59064;45.294;11.816;2023-03-17T04:19:21;102098.20;;;3.00
68939;BMP180;59064;45.294;11.816;2023-03-17T04:21:47;102102.00;;;3.00
68939;BMP180;59064;45.294;11.816;2023-03-17T04:24:13;102103.00;;;2.96
68939;BMP180;59064;45.294;11.816;2023-03-17T04:26:39;102101.40;;;2.96
68939;BMP180;59064;45.294;11.816;2023-03-17T04:29:06;102092.80;;;3.00
68939;BMP180;59064;45.294;11.816;2023-03-17T04:31:34;102093.20;;;3.10
68939;BMP180;59064;45.294;11.816;2023-03-17T04:33:59;102093.80;;;3.10
68939;BMP180;59064;45.294;11.816;2023-03-17T04:36:25;102096.00;;;3.12
68939;BMP180;59064;45.294;11.816;2023-03-17T04:38:51;102092.40;;;3.20
68939;BMP180;59064;45.294;11.816;2023-03-17T04:41:17;102088.40;;;3.30
68939;BMP180;59064;45.294;11.816;2023-03-17T04:43:42;102096.80;;;3.30
68939;BMP180;59064;45.294;11.816;2023-03-17T04:46:08;102094.00;;;3.38
68939;BMP180;59064;45.294;11.816;2023-03-17T04:48:34;102089.20;;;3.40
68939;BMP180;59064;45.294;11.816;2023-03-17T04:51:00;102088.00;;;3.40
68939;BMP180;59064;45.294;11.816;2023-03-17T04:53:25;102098.00;;;3.40
68939;BMP180;59064;45.294;11.816;2023-03-17T04:55:51;102102.40;;;3.40
68939;BMP180;59064;45.294;11.816;2023-03-17T04:58:17;102095.00;;;3.40
68939;BMP180;59064;45.294;11.816;2023-03-17T05:00:43;102100.40;;;3.40
68939;BMP180;59064;45.294;11.816;2023-03-17T05:03:08;102089.80;;;3.32
68939;BMP180;59064;45.294;11.816;2023-03-17T05:05:34;102094.40;;;3.30
68939;BMP180;59064;45.294;11.816;2023-03-17T05:08:00;102093.20;;;3.30
68939;BMP180;59064;45.294;11.816;2023-03-17T05:10:26;102092.20;;;3.30
68939;BMP180;59064;45.294;11.816;2023-03-17T05:12:52;102091.20;;;3.30
68939;BMP180;59064;45.294;11.816;2023-03-17T05:15:17;102095.60;;;3.40
68939;BMP180;59064;45.294;11.816;2023-03-17T05:17:43;102096.80;;;3.48
68939;BMP180;59064;45.294;11.816;2023-03-17T05:20:09;102092.60;;;3.50
68939;BMP180;59064;45.294;11.816;2023-03-17T05:22:35;102090.40;;;3.58
68939;BMP180;59064;45.294;11.816;2023-03-17T05:25:02;102093.00;;;3.60
68939;BMP180;59064;45.294;11.816;2023-03-17T05:27:28;102094.80;;;3.60
68939;BMP180;59064;45.294;11.816;2023-03-17T05:29:54;102089.00;;;3.60
68939;BMP180;59064;45.294;11.816;2023-03-17T05:32:20;102091.00;;;3.60
68939;BMP180;59064;45.294;11.816;2023-03-17T05:34:46;102096.40;;;3.70
68939;BMP180;59064;45.294;11.816;2023-03-17T05:37:12;102097.00;;;3.70
68939;BMP180;59064;45.294;11.816;2023-03-17T05:39:38;102092.40;;;3.70
68939;BMP180;59064;45.294;11.816;2023-03-17T05:42:04;102092.80;;;3.78
68939;BMP180;59064;45.294;11.816;2023-03-17T05:44:30;102092.60;;;3.80
68939;BMP180;59064;45.294;11.816;2023-03-17T05:46:56;102087.00;;;3.90
68939;BMP180;59064;45.294;11.816;2023-03-17T05:49:24;102089.40;;;3.98
68939;BMP180;59064;45.294;11.816;2023-03-17T05:51:50;102083.80;;;4.00
68939;BMP180;59064;45.294;11.816;2023-03-17T05:54:16;102085.40;;;4.10
68939;BMP180;59064;45.294;11.816;2023-03-17T05:56:41;102085.40;;;4.20
68939;BMP180;59064;45.294;11.816;2023-03-17T05:59:07;102087.40;;;4.20
68939;BMP180;59064;45.294;11.816;2023-03-17T06:01:33;102086.60;;;4.30
68939;BMP180;59064;45.294;11.816;2023-03-17T06:03:59;102090.00;;;4.40
68939;BMP180;59064;45.294;11.816;2023-03-17T06:06:26;102091.60;;;4.50
68939;BMP180;59064;45.294;11.816;2023-03-17T06:08:52;102096.80;;;4.50
68939;BMP180;59064;45.294;11.816;2023-03-17T06:11:18;102096.00;;;4.60
68939;BMP180;59064;45.294;11.816;2023-03-17T06:13:46;102097.20;;;4.70
68939;BMP180;59064;45.294;11.816;2023-03-17T06:16:12;102097.40;;;4.80
68939;BMP180;59064;45.294;11.816;2023-03-17T06:18:38;102097.20;;;4.90
68939;BMP180;59064;45.294;11.816;2023-03-17T06:21:03;102100.80;;;5.00
68939;BMP180;59064;45.294;11.816;2023-03-17T06:23:29;102097.20;;;5.10
68939;BMP180;59064;45.294;11.816;2023-03-17T06:25:55;102096.40;;;5.10
68939;BMP180;59064;45.294;11.816;2023-03-17T06:28:21;102093.60;;;5.20
68939;BMP180;59064;45.294;11.816;2023-03-17T06:30:46;102094.00;;;5.30
68939;BMP180;59064;45.294;11.816;2023-03-17T06:33:12;102093.80;;;5.40
68939;BMP180;59064;45.294;11.816;2023-03-17T06:35:38;102102.40;;;5.54
68939;BMP180;59064;45.294;11.816;2023-03-17T06:38:04;102095.80;;;5.70
68939;BMP180;59064;45.294;11.816;2023-03-17T06:40:30;102102.00;;;5.80
68939;BMP180;59064;45.294;11.816;2023-03-17T06:42:56;102108.00;;;6.00
68939;BMP180;59064;45.294;11.816;2023-03-17T06:45:22;102106.20;;;6.20
68939;BMP180;59064;45.294;11.816;2023-03-17T06:47:48;102100.40;;;6.30
68939;BMP180;59064;45.294;11.816;2023-03-17T06:50:14;102103.40;;;6.50
68939;BMP180;59064;45.294;11.816;2023-03-17T06:52:39;102105.40;;;6.60
68939;BMP180;59064;45.294;11.816;2023-03-17T06:55:05;102105.60;;;6.80
68939;BMP180;59064;45.294;11.816;2023-03-17T06:57:31;102106.00;;;6.90
68939;BMP180;59064;45.294;11.816;2023-03-17T06:59:57;102104.00;;;7.08
68939;BMP180;59064;45.294;11.816;2023-03-17T07:02:22;102107.20;;;7.16
68939;BMP180;59064;45.294;11.816;2023-03-17T07:04:49;102108.40;;;7.30
68939;BMP180;59064;45.294;11.816;2023-03-17T07:07:15;102109.00;;;7.40
68939;BMP180;59064;45.294;11.816;2023-03-17T07:09:40;102111.60;;;7.50
68939;BMP180;59064;45.294;11.816;2023-03-17T07:12:06;102115.40;;;7.60
68939;BMP180;59064;45.294;11.816;2023-03-17T07:14:33;102119.20;;;7.68
68939;BMP180;59064;45.294;11.816;2023-03-17T07:17:00;102118.00;;;7.72
68939;BMP180;59064;45.294;11.816;2023-03-17T07:19:26;102118.40;;;7.88
68939;BMP180;59064;45.294;11.816;2023-03-17T07:21:53;102122.40;;;8.10
68939;BMP180;59064;45.294;11.816;2023-03-17T07:24:20;102123.60;;;8.20
68939;BMP180;59064;45.294;11.816;2023-03-17T07:26:46;102122.00;;;8.40
68939;BMP180;59064;45.294;11.816;2023-03-17T07:29:11;102124.40;;;8.60
68939;BMP180;59064;45.294;11.816;2023-03-17T07:31:38;102123.60;;;8.70
68939;BMP180;59064;45.294;11.816;2023-03-17T07:34:04;102123.60;;;8.70
68939;BMP180;59064;45.294;11.816;2023-03-17T07:36:31;102126.40;;;8.70
68939;BMP180;59064;45.294;11.816;2023-03-17T07:38:57;102126.80;;;8.70
68939;BMP180;59064;45.294;11.816;2023-03-17T07:41:23;102125.00;;;8.80
68939;BMP180;59064;45.294;11.816;2023-03-17T07:43:49;102123.60;;;8.86
68939;BMP180;59064;45.294;11.816;2023-03-17T07:46:14;102125.00;;;9.00
68939;BMP180;59064;45.294;11.816;2023-03-17T07:48:40;102121.80;;;9.14
68939;BMP180;59064;45.294;11.816;2023-03-17T07:51:12;102118.80;;;9.20
68939;BMP180;59064;45.294;11.816;2023-03-17T07:53:38;102124.80;;;9.30
68939;BMP180;59064;45.294;11.816;2023-03-17T07:56:04;102127.20;;;9.42
68939;BMP180;59064;45.294;11.816;2023-03-17T07:58:29;102129.20;;;9.60
68939;BMP180;59064;45.294;11.816;2023-03-17T08:00:55;102130.80;;;9.80
68939;BMP180;59064;45.294;11.816;2023-03-17T08:03:22;102130.20;;;9.90
68939;BMP180;59064;45.294;11.816;2023-03-17T08:05:52;102129.00;;;10.00
68939;BMP180;59064;45.294;11.816;2023-03-17T08:08:24;102126.40;;;10.10
68939;BMP180;59064;45.294;11.816;2023-03-17T08:10:50;102125.20;;;10.20
68939;BMP180;59064;45.294;11.816;2023-03-17T08:13:17;102126.20;;;10.20
68939;BMP180;59064;45.294;11.816;2023-03-17T08:15:43;102125.00;;;10.18
68939;BMP180;59064;45.294;11.816;2023-03-17T08:18:09;102129.00;;;10.30
68939;BMP180;59064;45.294;11.816;2023-03-17T08:20:35;102124.00;;;10.40
68939;BMP180;59064;45.294;11.816;2023-03-17T08:23:01;102122.60;;;10.52
68939;BMP180;59064;45.294;11.816;2023-03-17T08:25:27;102126.00;;;10.82
68939;BMP180;59064;45.294;11.816;2023-03-17T08:27:53;102126.60;;;11.12
68939;BMP180;59064;45.294;11.816;2023-03-17T08:30:19;102118.20;;;11.30
68939;BMP180;59064;45.294;11.816;2023-03-17T08:32:45;102116.80;;;11.50
68939;BMP180;59064;45.294;11.816;2023-03-17T08:35:16;102122.80;;;11.74
68939;BMP180;59064;45.294;11.816;2023-03-17T08:37:43;102126.00;;;11.88
68939;BMP180;59064;45.294;11.816;2023-03-17T08:40:11;102123.00;;;12.00
68939;BMP180;59064;45.294;11.816;2023-03-17T08:42:37;102124.20;;;12.20
68939;BMP180;59064;45.294;11.816;2023-03-17T08:45:03;102130.60;;;12.50
68939;BMP180;59064;45.294;11.816;2023-03-17T08:47:31;102129.60;;;12.92
68939;BMP180;59064;45.294;11.816;2023-03-17T08:49:57;102125.00;;;13.20
68939;BMP180;59064;45.294;11.816;2023-03-17T08:52:25;102123.40;;;13.26
68939;BMP180;59064;45.294;11.816;2023-03-17T08:54:52;102124.60;;;13.00
68939;BMP180;59064;45.294;11.816;2023-03-17T08:57:18;102127.40;;;12.90
68939;BMP180;59064;45.294;11.816;2023-03-17T08:59:44;102129.60;;;12.90
68939;BMP180;59064;45.294;11.816;2023-03-17T09:02:11;102129.60;;;13.08
68939;BMP180;59064;45.294;11.816;2023-03-17T09:04:37;102122.80;;;13.10
68939;BMP180;59064;45.294;11.816;2023-03-17T09:07:03;102132.20;;;13.10
68939;BMP180;59064;45.294;11.816;2023-03-17T09:09:31;102128.40;;;13.30
68939;BMP180;59064;45.294;11.816;2023-03-17T09:11:58;102131.40;;;13.56
68939;BMP180;59064;45.294;11.816;2023-03-17T09:14:23;102132.40;;;13.84
68939;BMP180;59064;45.294;11.816;2023-03-17T09:16:49;102130.80;;;14.00
68939;BMP180;59064;45.294;11.816;2023-03-17T09:19:15;102131.40;;;14.24
68939;BMP180;59064;45.294;11.816;2023-03-17T09:21:42;102131.80;;;14.60
68939;BMP180;59064;45.294;11.816;2023-03-17T09:24:08;102123.60;;;14.90
68939;BMP180;59064;45.294;11.816;2023-03-17T09:26:34;102126.20;;;15.20
68939;BMP180;59064;45.294;11.816;2023-03-17T09:29:00;102125.80;;;15.10
68939;BMP180;59064;45.294;11.816;2023-03-17T09:31:26;102125.80;;;15.20
68939;BMP180;59064;45.294;11.816;2023-03-17T09:33:52;102126.80;;;15.30
68939;BMP180;59064;45.294;11.816;2023-03-17T09:36:18;102126.80;;;15.48
68939;BMP180;59064;45.294;11.816;2023-03-17T09:38:44;102127.40;;;15.60
68939;BMP180;59064;45.294;11.816;2023-03-17T09:47:13;102125.00;;;15.70
68939;BMP180;59064;45.294;11.816;2023-03-17T09:49:47;102126.60;;;15.40
68939;BMP180;59064;45.294;11.816;2023-03-17T09:52:23;102126.20;;;15.20
68939;BMP180;59064;45.294;11.816;2023-03-17T09:54:49;102123.80;;;15.12
68939;BMP180;59064;45.294;11.816;2023-03-17T09:57:20;102123.00;;;15.30
68939;BMP180;59064;45.294;11.816;2023-03-17T09:59:51;102116.20;;;15.30
68939;BMP180;59064;45.294;11.816;2023-03-17T10:02:33;102117.80;;;15.20
68939;BMP180;59064;45.294;11.816;2023-03-17T10:05:33;102114.40;;;15.10
68939;BMP180;59064;45.294;11.816;2023-03-17T10:13:53;102114.80;;;15.60
68939;BMP180;59064;45.294;11.816;2023-03-17T10:16:44;102116.40;;;15.76
68939;BMP180;59064;45.294;11.816;2023-03-17T10:22:00;102119.20;;;16.30
68939;BMP180;59064;45.294;11.816;2023-03-17T10:24:29;102112.80;;;16.30
68939;BMP180;59064;45.294;11.816;2023-03-17T10:26:57;102114.40;;;16.62
68939;BMP180;59064;45.294;11.816;2023-03-17T10:29:24;102112.00;;;16.52
68939;BMP180;59064;45.294;11.816;2023-03-17T10:31:51;102115.40;;;16.60
68939;BMP180;59064;45.294;11.816;2023-03-17T10:34:22;102115.40;;;16.82
68939;BMP180;59064;45.294;11.816;2023-03-17T10:37:16;102110.00;;;17.20
68939;BMP180;59064;45.294;11.816;2023-03-17T10:39:48;102109.40;;;17.52
68939;BMP180;59064;45.294;11.816;2023-03-17T10:42:27;102105.00;;;17.50
68939;BMP180;59064;45.294;11.816;2023-03-17T10:45:29;102108.00;;;17.38
68939;BMP180;59064;45.294;11.816;2023-03-17T10:47:57;102104.00;;;17.40
68939;BMP180;59064;45.294;11.816;2023-03-17T10:50:27;102103.80;;;17.40
68939;BMP180;59064;45.294;11.816;2023-03-17T10:52:59;102095.80;;;17.20
68939;BMP180;59064;45.294;11.816;2023-03-17T10:55:30;102092.80;;;17.10
68939;BMP180;59064;45.294;11.816;2023-03-17T10:58:01;102090.40;;;17.10
68939;BMP180;59064;45.294;11.816;2023-03-17T11:00:29;102088.60;;;17.20
68939;BMP180;59064;45.294;11.816;2023-03-17T11:02:58;102092.20;;;17.28
68939;BMP180;59064;45.294;11.816;2023-03-17T11:05:27;102084.60;;;17.50
68939;BMP180;59064;45.294;11.816;2023-03-17T11:08:32;102079.40;;;17.40
68939;BMP180;59064;45.294;11.816;2023-03-17T11:10:58;102084.40;;;17.40
68939;BMP180;59064;45.294;11.816;2023-03-17T11:13:29;102079.00;;;17.48
68939;BMP180;59064;45.294;11.816;2023-03-17T11:16:09;102080.80;;;17.40
68939;BMP180;59064;45.294;11.816;2023-03-17T11:18:39;102079.60;;;17.30
68939;BMP180;59064;45.294;11.816;2023-03-17T11:21:11;102078.00;;;17.30
68939;BMP180;59064;45.294;11.816;2023-03-17T11:23:50;102073.40;;;17.52
68939;BMP180;59064;45.294;11.816;2023-03-17T11:34:40;102055.40;;;17.58
68939;BMP180;59064;45.294;11.816;2023-03-17T11:46:10;102041.20;;;17.10
68939;BMP180;59064;45.294;11.816;2023-03-17T11:49:32;102035.80;;;17.12
68939;BMP180;59064;45.294;11.816;2023-03-17T11:54:50;102029.60;;;17.50
68939;BMP180;59064;45.294;11.816;2023-03-17T11:57:26;102021.40;;;17.98
68939;BMP180;59064;45.294;11.816;2023-03-17T12:00:09;102026.00;;;18.10
68939;BMP180;59064;45.294;11.816;2023-03-17T12:02:58;102022.80;;;18.28
68939;BMP180;59064;45.294;11.816;2023-03-17T12:05:26;102019.80;;;18.68
68939;BMP180;59064;45.294;11.816;2023-03-17T12:08:15;102013.80;;;18.80
68939;BMP180;59064;45.294;11.816;2023-03-17T12:10:47;102010.60;;;18.88
68939;BMP180;59064;45.294;11.816;2023-03-17T12:15:49;102008.80;;;19.00
68939;BMP180;59064;45.294;11.816;2023-03-17T12:18:22;102002.00;;;18.90
68939;BMP180;59064;45.294;11.816;2023-03-17T12:21:06;102004.40;;;18.98
68939;BMP180;59064;45.294;11.816;2023-03-17T12:23:50;101997.00;;;19.20
68939;BMP180;59064;45.294;11.816;2023-03-17T12:26:19;102001.40;;;19.40
68939;BMP180;59064;45.294;11.816;2023-03-17T12:31:33;101994.40;;;19.72
68939;BMP180;59064;45.294;11.816;2023-03-17T12:34:09;101991.20;;;19.50
68939;BMP180;59064;45.294;11.816;2023-03-17T12:36:40;101986.20;;;19.70
68939;BMP180;59064;45.294;11.816;2023-03-17T12:39:13;101991.60;;;20.12
68939;BMP180;59064;45.294;11.816;2023-03-17T12:47:32;101977.20;;;21.50
68939;BMP180;59064;45.294;11.816;2023-03-17T12:55:38;101968.40;;;20.50
68939;BMP180;59064;45.294;11.816;2023-03-17T12:58:31;101963.80;;;20.40
68939;BMP180;59064;45.294;11.816;2023-03-17T13:06:30;101958.20;;;21.20
68939;BMP180;59064;45.294;11.816;2023-03-17T13:15:16;101946.00;;;21.92
68939;BMP180;59064;45.294;11.816;2023-03-17T13:17:45;101942.80;;;22.18
68939;BMP180;59064;45.294;11.816;2023-03-17T13:20:16;101942.40;;;22.50
68939;BMP180;59064;45.294;11.816;2023-03-17T13:46:44;101908.40;;;22.40
68939;BMP180;59064;45.294;11.816;2023-03-17T13:49:23;101909.60;;;22.84
68939;BMP180;59064;45.294;11.816;2023-03-17T13:51:54;101905.00;;;23.30
68939;BMP180;59064;45.294;11.816;2023-03-17T13:56:53;101903.00;;;23.80
68939;BMP180;59064;45.294;11.816;2023-03-17T14:02:16;101897.20;;;24.12
68939;BMP180;59064;45.294;11.816;2023-03-17T14:07:17;101894.20;;;23.68
68939;BMP180;59064;45.294;11.816;2023-03-17T14:09:44;101896.20;;;23.90
68939;BMP180;59064;45.294;11.816;2023-03-17T14:12:22;101893.00;;;23.90
68939;BMP180;59064;45.294;11.816;2023-03-17T14:14:55;101890.00;;;23.98
68939;BMP180;59064;45.294;11.816;2023-03-17T14:17:33;101892.60;;;24.10
68939;BMP180;59064;45.294;11.816;2023-03-17T14:22:45;101885.20;;;24.10
68939;BMP180;59064;45.294;11.816;2023-03-17T14:25:16;101880.20;;;23.88
68939;BMP180;59064;45.294;11.816;2023-03-17T14:27:44;101879.00;;;23.84
68939;BMP180;59064;45.294;11.816;2023-03-17T14:30:22;101876.80;;;23.80
68939;BMP180;59064;45.294;11.816;2023-03-17T14:35:38;101867.00;;;23.98
68939;BMP180;59064;45.294;11.816;2023-03-17T14:38:21;101860.80;;;23.80
68939;BMP180;59064;45.294;11.816;2023-03-17T14:40:48;101859.60;;;23.70
68939;BMP180;59064;45.294;11.816;2023-03-17T14:43:15;101860.00;;;23.50
68939;BMP180;59064;45.294;11.816;2023-03-17T14:46:01;101854.00;;;23.68
68939;BMP180;59064;45.294;11.816;2023-03-17T14:48:36;101853.20;;;24.34
68939;BMP180;59064;45.294;11.816;2023-03-17T14:51:11;101847.40;;;24.80
68939;BMP180;59064;45.294;11.816;2023-03-17T14:53:40;101846.40;;;24.76
68939;BMP180;59064;45.294;11.816;2023-03-17T14:56:08;101847.00;;;24.40
68939;BMP180;59064;45.294;11.816;2023-03-17T14:58:42;101841.00;;;23.76
68939;BMP180;59064;45.294;11.816;2023-03-17T15:01:32;101836.80;;;23.20
68939;BMP180;59064;45.294;11.816;2023-03-17T15:04:06;101839.40;;;22.80
68939;BMP180;59064;45.294;11.816;2023-03-17T15:06:32;101837.00;;;23.10
68939;BMP180;59064;45.294;11.816;2023-03-17T15:09:15;101836.40;;;23.14
68939;BMP180;59064;45.294;11.816;2023-03-17T15:11:43;101830.40;;;22.80
68939;BMP180;59064;45.294;11.816;2023-03-17T15:14:22;101831.80;;;22.60
68939;BMP180;59064;45.294;11.816;2023-03-17T15:16:51;101829.40;;;22.30
68939;BMP180;59064;45.294;11.816;2023-03-17T15:19:23;101830.40;;;22.24
68939;BMP180;59064;45.294;11.816;2023-03-17T15:21:50;101826.20;;;22.28
68939;BMP180;59064;45.294;11.816;2023-03-17T15:24:39;101825.20;;;22.36
68939;BMP180;59064;45.294;11.816;2023-03-17T15:27:13;101827.00;;;22.54
68939;BMP180;59064;45.294;11.816;2023-03-17T15:29:39;101824.40;;;22.38
68939;BMP180;59064;45.294;11.816;2023-03-17T15:32:13;101818.80;;;22.14
68939;BMP180;59064;45.294;11.816;2023-03-17T15:34:40;101818.60;;;21.72
68939;BMP180;59064;45.294;11.816;2023-03-17T15:39:42;101820.00;;;21.10
68939;BMP180;59064;45.294;11.816;2023-03-17T15:42:08;101814.00;;;20.66
68939;BMP180;59064;45.294;11.816;2023-03-17T15:44:33;101809.60;;;20.20
68939;BMP180;59064;45.294;11.816;2023-03-17T15:46:59;101811.20;;;19.88
68939;BMP180;59064;45.294;11.816;2023-03-17T15:49:25;101813.00;;;19.60
68939;BMP180;59064;45.294;11.816;2023-03-17T15:51:50;101808.40;;;19.40